Harbinger, NC (27941)

12:15 AM EDT on September 01, 2015 (GMT -0400)
Martin's Point | | Change Station
CLOSE
Current Station
Personal Weather Station
Location: Kitty Hawk, NC
Elevation: 0 ft
Nearby Weather Stations

Elev 0 ft 36.11 °N, 75.75 °W | Updated 8 minutes ago

Overcast
Overcast
75.2 °F
Feels Like 74 °F
N
0.0
Wind Variable Wind from NNE
Gusts 0.0 mph

Today
High -- | Low -- °F
--% Chance of Precip.
Yesterday
High -- | Low -- °F
Precip. -- in
6:34 AM 7:31 PM
Waning Gibbous, 91% visible
Pressure 30.06 in
Visibility 5.0 miles
Clouds Overcast 1900 ft
Heat Index 74 °F
Dew Point 74 °F
Humidity 95%
Rainfall 0.00 in
Snow Depth Not available.
UV 0 out of 12
Pollen 8.40 out of 12
Air Quality Not available.
Flu Activity Not available.
METAR KFFA 010355Z AUTO 00000KT 5SM BR OVC019 24/22 A3006 RMK AO2 T02350219 403600183
Pressure 30.06 in
Visibility 5.0 miles
Clouds Overcast 1900 ft
Heat Index 74 °F
Dew Point 74 °F
Humidity 95%
Rainfall 0.00 in
Snow Depth Not available.
UV 0 out of 12
Pollen 8.40 out of 12
Air Quality Not available.
Flu Activity Not available.
METAR KFFA 010355Z AUTO 00000KT 5SM BR OVC019 24/22 A3006 RMK AO2 T02350219 403600183

10-Day Weather Forecast

×

Almanac

Astronomy

Sep. 01, 2015 Rise Set
Actual Time
Civil Twilight
Nautical Twilight
Astronomical Twilight
Moon
Length of Visible Light
Length of Day
Tomorrow will be .
, % of the Moon is Illuminated

Today's Extremes

State Highs State Lows

Community

WunderPhotos

Upload Photos

1,851,477 photos uploaded!

WunderBlogs® & News

Nearby

Air Quality

  Air Quality AQ Index Pollutant
Not available.

Snow Depth

Station Depth Elevation

Earthquake Activity

City Distance Mag. Time & Date
Minimum magnitude displayed is 2.5.

Coastal Water Temperatures

Place Temperature

Stations

Nearby Weather Stations

Station Location Temp. Windchill Dew Point Humidity Wind Precip. Elev Updated Type